createdAt,value
2022-11-25T00:00:23.178Z,55.56
2022-11-25T00:02:51.281Z,55.14
2022-11-25T00:05:20.675Z,55.53
2022-11-25T00:07:48.643Z,55.40
2022-11-25T00:10:16.646Z,55.63
2022-11-25T00:12:44.510Z,55.43
2022-11-25T00:15:12.520Z,55.17
2022-11-25T00:17:40.386Z,55.15
2022-11-25T00:20:09.448Z,55.13
2022-11-25T00:22:38.753Z,55.31
2022-11-25T00:25:07.490Z,55.25
2022-11-25T00:27:35.398Z,54.50
2022-11-25T00:30:03.308Z,53.96
2022-11-25T00:32:31.174Z,53.25
2022-11-25T00:34:59.019Z,53.28
2022-11-25T00:37:26.969Z,53.02
2022-11-25T00:39:56.259Z,53.10
2022-11-25T00:42:41.659Z,52.99
2022-11-25T00:45:10.435Z,53.43
2022-11-25T00:47:38.287Z,53.61
2022-11-25T00:50:07.504Z,53.47
2022-11-25T00:52:37.093Z,53.47
2022-11-25T00:55:07.045Z,53.53
2022-11-25T00:57:34.947Z,53.40
2022-11-25T01:00:02.810Z,53.40
2022-11-25T01:02:30.765Z,53.16
2022-11-25T01:04:58.847Z,53.61
2022-11-25T01:07:26.941Z,53.52
2022-11-25T01:09:54.814Z,53.31
2022-11-25T01:12:24.109Z,53.01
2022-11-25T01:14:52.044Z,53.44
2022-11-25T01:17:19.943Z,53.45
2022-11-25T01:19:48.972Z,53.38
2022-11-25T01:22:16.883Z,53.45
2022-11-25T01:24:44.711Z,53.00
2022-11-25T01:27:12.580Z,53.13
2022-11-25T01:29:43.040Z,53.26
2022-11-25T01:32:10.867Z,52.88
2022-11-25T01:34:39.029Z,52.93
2022-11-25T01:37:06.939Z,53.00
2022-11-25T01:39:34.794Z,52.80
2022-11-25T01:42:02.711Z,53.10
2022-11-25T01:44:30.759Z,52.62
2022-11-25T01:47:02.296Z,52.47
2022-11-25T01:49:36.372Z,51.98
2022-11-25T01:52:07.735Z,52.22
2022-11-25T01:54:37.850Z,52.24
2022-11-25T01:57:07.778Z,52.26
2022-11-25T01:59:36.358Z,52.19
2022-11-25T02:02:05.720Z,52.03
2022-11-25T02:04:35.158Z,52.24
2022-11-25T02:07:05.370Z,52.73
2022-11-25T02:09:33.295Z,52.68
2022-11-25T02:12:01.153Z,52.64
2022-11-25T02:14:29.059Z,52.81
2022-11-25T02:16:56.923Z,52.24
2022-11-25T02:19:37.869Z,52.81
2022-11-25T02:22:06.050Z,52.87
2022-11-25T02:24:36.126Z,52.91
2022-11-25T02:27:05.468Z,53.10
2022-11-25T02:29:33.521Z,53.13
2022-11-25T02:32:01.401Z,53.21
2022-11-25T02:34:29.299Z,53.62
2022-11-25T02:36:57.139Z,53.23
2022-11-25T02:39:25.042Z,53.19
2022-11-25T02:41:54.149Z,52.84
2022-11-25T02:44:23.454Z,52.90
2022-11-25T02:46:51.340Z,52.87
2022-11-25T02:49:19.202Z,52.27
2022-11-25T02:51:47.194Z,52.54
2022-11-25T02:54:15.586Z,52.54
2022-11-25T02:56:43.446Z,52.55
2022-11-25T02:59:11.391Z,52.57
2022-11-25T03:01:40.719Z,52.11
2022-11-25T03:04:08.672Z,52.16
2022-11-25T03:06:36.541Z,52.52
2022-11-25T03:09:04.436Z,52.77
2022-11-25T03:11:49.766Z,52.99
2022-11-25T03:14:18.003Z,53.13
2022-11-25T03:16:47.444Z,54.30
2022-11-25T03:19:15.478Z,55.31
2022-11-25T03:21:43.340Z,56.49
2022-11-25T03:24:11.385Z,56.99
2022-11-25T03:26:39.323Z,57.64
2022-11-25T03:29:07.652Z,58.17
2022-11-25T03:31:35.559Z,58.36
2022-11-25T03:34:04.878Z,58.74
2022-11-25T03:36:32.755Z,58.99
2022-11-25T03:39:00.660Z,59.04
2022-11-25T03:41:28.554Z,59.34
2022-11-25T03:43:56.512Z,59.53
2022-11-25T03:46:24.541Z,59.41
2022-11-25T03:48:52.430Z,59.24
2022-11-25T03:51:21.667Z,59.29
2022-11-25T03:53:49.584Z,59.05
2022-11-25T03:56:17.475Z,58.86
2022-11-25T03:58:45.335Z,58.80
2022-11-25T04:01:13.266Z,58.67
2022-11-25T04:03:41.208Z,58.56
2022-11-25T04:06:09.198Z,57.82
2022-11-25T04:08:38.443Z,57.96
2022-11-25T04:11:06.560Z,57.89
2022-11-25T04:13:33.414Z,57.77
2022-11-25T04:16:01.326Z,57.91
2022-11-25T04:18:29.227Z,57.58
2022-11-25T04:20:57.120Z,57.66
2022-11-25T04:23:25.100Z,57.64
2022-11-25T04:25:54.327Z,57.80
2022-11-25T04:28:23.574Z,57.99
2022-11-25T04:30:51.546Z,58.14
2022-11-25T04:33:19.598Z,58.10
2022-11-25T04:35:48.207Z,57.99
2022-11-25T04:38:16.130Z,57.49
2022-11-25T04:40:44.028Z,57.07
2022-11-25T04:43:13.279Z,56.78
2022-11-25T04:48:29.035Z,56.18
2022-11-25T04:50:56.903Z,56.05
2022-11-25T04:53:24.780Z,55.85
2022-11-25T04:55:52.682Z,55.56
2022-11-25T04:58:36.057Z,55.50
2022-11-25T05:01:04.023Z,55.16
2022-11-25T05:03:31.955Z,54.86
2022-11-25T05:05:59.866Z,54.86
2022-11-25T05:08:27.748Z,55.04
2022-11-25T05:10:55.662Z,55.15
2022-11-25T05:13:24.937Z,55.08
2022-11-25T05:15:52.908Z,55.23
2022-11-25T05:18:20.836Z,55.39
2022-11-25T05:20:48.756Z,55.60
2022-11-25T05:23:16.692Z,55.78
2022-11-25T05:25:44.547Z,55.91
2022-11-25T05:28:12.453Z,55.98
2022-11-25T05:30:42.580Z,55.63
2022-11-25T05:33:10.496Z,55.42
2022-11-25T05:35:38.429Z,55.29
2022-11-25T05:38:06.334Z,55.02
2022-11-25T05:40:34.228Z,54.36
2022-11-25T05:43:03.016Z,54.84
2022-11-25T05:45:30.924Z,54.67
2022-11-25T05:48:00.167Z,54.61
2022-11-25T05:50:28.182Z,54.53
2022-11-25T05:52:56.085Z,54.48
2022-11-25T05:55:23.999Z,54.91
2022-11-25T05:57:51.978Z,55.84
2022-11-25T06:00:26.282Z,56.82
2022-11-25T06:02:54.891Z,57.31
2022-11-25T06:05:24.236Z,57.73
2022-11-25T06:07:52.213Z,57.96
2022-11-25T06:10:20.388Z,58.30
2022-11-25T06:12:48.818Z,58.39
2022-11-25T06:15:16.685Z,58.66
2022-11-25T06:17:44.531Z,58.74
2022-11-25T06:20:12.713Z,58.89
2022-11-25T06:22:41.942Z,58.98
2022-11-25T06:25:10.433Z,59.15
2022-11-25T06:28:04.512Z,59.22
2022-11-25T06:30:26.282Z,59.31
2022-11-25T06:32:55.435Z,59.33
2022-11-25T06:35:23.324Z,59.47
2022-11-25T06:37:52.669Z,59.36
2022-11-25T06:40:20.593Z,59.52
2022-11-25T06:42:48.487Z,59.63
2022-11-25T06:45:16.547Z,59.76
2022-11-25T06:47:44.415Z,59.50
2022-11-25T06:50:12.402Z,59.57
2022-11-25T06:52:40.298Z,59.06
2022-11-25T06:55:10.272Z,58.23
2022-11-25T06:57:38.230Z,58.44
2022-11-25T07:00:07.855Z,58.38
2022-11-25T07:02:40.883Z,58.34
2022-11-25T07:05:10.968Z,58.10
2022-11-25T07:07:38.942Z,58.04
2022-11-25T07:10:09.745Z,58.22
2022-11-25T07:12:37.635Z,58.21
2022-11-25T07:15:06.498Z,58.46
2022-11-25T07:17:34.425Z,58.40
2022-11-25T07:20:02.294Z,58.28
2022-11-25T07:22:30.200Z,58.64
2022-11-25T07:24:58.095Z,58.61
2022-11-25T07:27:27.668Z,58.78
2022-11-25T07:30:29.105Z,58.40
2022-11-25T07:32:43.747Z,58.06
2022-11-25T07:35:11.620Z,57.02
2022-11-25T07:37:39.515Z,56.98
2022-11-25T07:40:08.608Z,57.05
2022-11-25T07:42:37.876Z,57.21
2022-11-25T07:45:06.565Z,57.09
2022-11-25T07:47:35.097Z,57.18
2022-11-25T07:50:02.985Z,57.43
2022-11-25T07:52:30.839Z,57.40
2022-11-25T07:54:58.783Z,57.63
2022-11-25T07:57:26.720Z,57.83
2022-11-25T07:59:55.975Z,58.00
2022-11-25T08:02:23.920Z,58.01
2022-11-25T08:04:52.159Z,57.82
2022-11-25T08:07:20.086Z,58.05
2022-11-25T08:09:47.953Z,58.01
2022-11-25T08:12:15.907Z,57.71
2022-11-25T08:14:43.794Z,57.35
2022-11-25T08:17:13.074Z,57.24
2022-11-25T08:19:41.403Z,56.96
2022-11-25T08:22:09.281Z,56.86
2022-11-25T08:24:37.132Z,56.55
2022-11-25T08:27:05.178Z,56.13
2022-11-25T08:29:33.151Z,56.35
2022-11-25T08:32:01.030Z,56.16
2022-11-25T08:34:30.296Z,56.15
2022-11-25T08:36:58.236Z,56.00
2022-11-25T08:39:51.059Z,55.72
2022-11-25T08:42:14.032Z,56.18
2022-11-25T08:44:42.140Z,55.94
2022-11-25T08:47:10.738Z,55.98
2022-11-25T08:49:41.716Z,55.77
2022-11-25T08:52:10.279Z,55.75
2022-11-25T08:54:38.381Z,55.94
2022-11-25T08:57:06.442Z,55.64
2022-11-25T08:59:34.528Z,55.86
2022-11-25T09:02:02.688Z,55.70
2022-11-25T09:04:30.609Z,55.24
2022-11-25T09:06:59.880Z,55.33
2022-11-25T09:09:27.973Z,55.10
2022-11-25T09:11:55.981Z,54.68
2022-11-25T09:14:23.920Z,54.77
2022-11-25T09:16:51.919Z,54.52
2022-11-25T09:19:20.912Z,55.02
2022-11-25T09:21:48.809Z,54.50
2022-11-25T09:24:18.099Z,54.89
2022-11-25T09:26:46.027Z,54.63
2022-11-25T09:29:14.227Z,54.65
2022-11-25T09:31:42.298Z,54.60
2022-11-25T09:34:10.750Z,54.27
2022-11-25T09:36:38.589Z,54.21
2022-11-25T09:39:06.610Z,53.95
2022-11-25T09:42:01.917Z,54.24
2022-11-25T09:44:55.932Z,54.09
2022-11-25T09:47:25.684Z,54.21
2022-11-25T09:50:01.496Z,54.37
2022-11-25T09:52:33.605Z,53.59
2022-11-25T09:55:05.720Z,53.57
2022-11-25T09:57:43.809Z,53.45
2022-11-25T10:00:13.735Z,52.95
2022-11-25T10:02:42.997Z,52.57
2022-11-25T10:05:14.090Z,52.21
2022-11-25T10:07:43.933Z,51.94
2022-11-25T10:10:17.067Z,52.06
2022-11-25T10:12:46.357Z,52.34
2022-11-25T10:15:16.862Z,52.27
2022-11-25T10:17:46.657Z,52.48
2022-11-25T10:20:16.332Z,52.38
2022-11-25T10:22:45.107Z,52.78
2022-11-25T10:25:15.492Z,52.57
2022-11-25T10:27:44.951Z,52.33
2022-11-25T10:30:18.200Z,51.97
2022-11-25T10:32:48.307Z,52.37
2022-11-25T10:35:21.823Z,53.64
2022-11-25T10:37:49.915Z,53.61
2022-11-25T10:40:18.088Z,53.28
2022-11-25T10:42:46.064Z,53.34
2022-11-25T10:45:15.493Z,54.30
2022-11-25T10:48:06.264Z,55.28
2022-11-25T10:50:35.351Z,55.67
2022-11-25T10:53:05.023Z,55.22
2022-11-25T10:55:33.975Z,55.33
2022-11-25T10:58:02.092Z,55.30
2022-11-25T11:00:33.163Z,55.03
2022-11-25T11:03:02.453Z,55.77
2022-11-25T11:05:31.307Z,55.55
2022-11-25T11:08:10.429Z,53.98
2022-11-25T11:10:38.325Z,54.19
2022-11-25T11:13:06.971Z,54.25
2022-11-25T11:15:47.120Z,53.84
2022-11-25T11:18:21.923Z,54.17
2022-11-25T11:20:50.702Z,53.52
2022-11-25T11:23:18.870Z,52.72
2022-11-25T11:25:56.682Z,51.87
2022-11-25T11:28:30.826Z,50.57
2022-11-25T11:31:01.534Z,49.65
2022-11-25T11:33:37.091Z,49.00
2022-11-25T11:36:12.738Z,50.15
2022-11-25T11:38:44.505Z,52.83
2022-11-25T11:41:16.119Z,51.86
2022-11-25T11:43:56.892Z,51.42
2022-11-25T11:46:33.915Z,51.38
2022-11-25T11:49:07.170Z,52.52
2022-11-25T11:51:37.938Z,54.15
2022-11-25T11:54:08.154Z,54.31
2022-11-25T11:56:39.192Z,54.09
2022-11-25T11:59:22.791Z,52.97
2022-11-25T12:02:04.135Z,51.94
2022-11-25T12:04:35.045Z,51.77
2022-11-25T12:07:06.213Z,51.91
2022-11-25T12:09:35.456Z,50.75
2022-11-25T12:12:05.580Z,49.78
2022-11-25T12:14:36.920Z,49.90
2022-11-25T12:17:08.642Z,50.44
2022-11-25T12:19:40.241Z,50.07
2022-11-25T12:22:09.810Z,50.33
2022-11-25T12:24:41.555Z,50.29
2022-11-25T12:27:11.689Z,49.84
2022-11-25T12:29:40.996Z,48.21
2022-11-25T12:32:24.109Z,49.17
2022-11-25T12:34:55.426Z,48.75
2022-11-25T12:37:28.602Z,49.31
2022-11-25T12:39:58.495Z,47.18
2022-11-25T12:42:26.415Z,47.84
2022-11-25T12:45:01.949Z,46.72
2022-11-25T12:47:31.262Z,46.06
2022-11-25T12:49:59.289Z,45.29
2022-11-25T12:52:52.775Z,45.28
2022-11-25T12:55:21.467Z,45.65
2022-11-25T12:58:10.500Z,46.03
2022-11-25T13:01:09.618Z,46.58
2022-11-25T13:04:01.750Z,47.82
2022-11-25T13:06:59.315Z,48.38
2022-11-25T13:09:42.062Z,48.42
2022-11-25T13:12:15.393Z,48.88
2022-11-25T13:15:05.807Z,52.84
2022-11-25T13:17:35.300Z,54.95
2022-11-25T13:20:49.041Z,55.35
2022-11-25T13:23:31.948Z,55.01
2022-11-25T13:26:48.799Z,54.64
2022-11-25T13:29:59.133Z,51.95
2022-11-25T13:32:40.618Z,49.59
2022-11-25T13:35:36.664Z,49.95
2022-11-25T13:38:49.059Z,49.53
2022-11-25T13:41:26.247Z,48.26
2022-11-25T13:44:01.611Z,48.26
2022-11-25T13:46:39.639Z,47.11
2022-11-25T13:49:08.127Z,47.25
2022-11-25T13:51:36.016Z,46.57
2022-11-25T13:54:05.753Z,46.96
2022-11-25T13:56:36.102Z,47.02
2022-11-25T13:59:37.492Z,46.50
2022-11-25T14:02:45.205Z,45.82
2022-11-25T14:05:33.502Z,44.82
2022-11-25T14:08:08.076Z,45.66
2022-11-25T14:10:45.715Z,48.01
2022-11-25T14:13:27.743Z,48.51
2022-11-25T14:16:07.196Z,49.37
2022-11-25T14:19:21.771Z,49.49
2022-11-25T14:21:45.608Z,48.07
2022-11-25T14:24:21.072Z,47.21
2022-11-25T14:26:52.569Z,48.41
2022-11-25T14:29:24.501Z,48.17
2022-11-25T14:31:55.862Z,46.92
2022-11-25T14:34:25.676Z,46.18
2022-11-25T14:36:55.242Z,46.52
2022-11-25T14:39:25.821Z,47.39
2022-11-25T14:41:57.550Z,47.84
2022-11-25T14:44:28.257Z,48.13
2022-11-25T14:46:56.885Z,48.60
2022-11-25T14:49:46.642Z,48.47
2022-11-25T14:52:17.677Z,48.14
2022-11-25T14:54:45.651Z,48.74
2022-11-25T14:57:13.577Z,49.02
2022-11-25T14:59:45.615Z,49.49
2022-11-25T15:02:24.660Z,49.94
2022-11-25T15:04:52.552Z,49.84
2022-11-25T15:07:26.309Z,50.11
2022-11-25T15:09:57.535Z,50.75
2022-11-25T15:12:25.430Z,50.71
2022-11-25T15:14:55.242Z,51.29
2022-11-25T15:17:26.903Z,51.20
2022-11-25T15:19:55.115Z,51.65
2022-11-25T15:22:24.458Z,51.71
2022-11-25T15:24:55.554Z,51.89
2022-11-25T15:27:26.213Z,52.08
2022-11-25T15:29:56.721Z,51.82
2022-11-25T15:32:26.392Z,52.29
2022-11-25T15:34:54.634Z,52.20
2022-11-25T15:37:24.050Z,52.16
2022-11-25T15:39:52.040Z,52.58
2022-11-25T15:42:21.317Z,53.27
2022-11-25T15:44:50.884Z,53.95
2022-11-25T15:47:24.366Z,54.03
2022-11-25T15:49:58.175Z,54.67
2022-11-25T15:52:26.138Z,54.64
2022-11-25T15:54:54.023Z,54.82
2022-11-25T15:57:24.105Z,55.20
2022-11-25T16:00:03.659Z,55.20
2022-11-25T16:02:34.899Z,55.46
2022-11-25T16:05:29.320Z,55.64
2022-11-25T16:08:19.001Z,55.94
2022-11-25T16:10:52.017Z,55.74
2022-11-25T16:13:29.201Z,55.88
2022-11-25T16:15:58.225Z,56.45
2022-11-25T16:18:40.428Z,56.24
2022-11-25T16:21:09.800Z,56.21
2022-11-25T16:23:38.791Z,56.36
2022-11-25T16:26:08.101Z,56.24
2022-11-25T16:28:35.946Z,56.40
2022-11-25T16:31:03.973Z,56.47
2022-11-25T16:33:33.217Z,56.59
2022-11-25T16:36:03.237Z,56.39
2022-11-25T16:38:34.537Z,56.62
2022-11-25T16:41:02.426Z,56.83
2022-11-25T16:43:30.303Z,57.12
2022-11-25T16:45:58.888Z,56.74
2022-11-25T16:48:26.906Z,56.94
2022-11-25T16:50:56.199Z,56.84
2022-11-25T16:53:24.174Z,56.68
2022-11-25T16:55:52.068Z,56.80
2022-11-25T16:58:20.848Z,56.66
2022-11-25T17:00:55.284Z,56.55
2022-11-25T17:03:26.127Z,56.83
2022-11-25T17:05:55.186Z,56.62
2022-11-25T17:08:24.473Z,56.47
2022-11-25T17:10:52.421Z,56.61
2022-11-25T17:13:21.844Z,56.57
2022-11-25T17:15:50.001Z,56.81
2022-11-25T17:18:19.229Z,56.74
2022-11-25T17:20:47.169Z,56.41
2022-11-25T17:23:16.387Z,56.76
2022-11-25T17:25:47.122Z,56.46
2022-11-25T17:28:16.120Z,56.46
2022-11-25T17:30:44.210Z,56.63
2022-11-25T17:33:14.581Z,56.83
2022-11-25T17:35:42.486Z,56.57
2022-11-25T17:38:13.178Z,56.84
2022-11-25T17:40:42.801Z,56.53
2022-11-25T17:43:14.318Z,56.58
2022-11-25T17:45:42.345Z,56.83
2022-11-25T17:48:11.615Z,56.70
2022-11-25T17:50:39.744Z,56.97
2022-11-25T17:53:07.682Z,56.79
2022-11-25T17:55:36.346Z,56.93
2022-11-25T17:58:04.283Z,56.74
2022-11-25T18:00:34.348Z,56.59
2022-11-25T18:03:02.453Z,56.78
2022-11-25T18:05:30.471Z,56.76
2022-11-25T18:07:58.456Z,56.67
2022-11-25T18:10:27.538Z,56.98
2022-11-25T18:12:56.128Z,57.21
2022-11-25T18:15:25.130Z,57.19
2022-11-25T18:17:57.224Z,57.33
2022-11-25T18:20:26.239Z,57.39
2022-11-25T18:22:54.202Z,57.49
2022-11-25T18:25:23.586Z,57.65
2022-11-25T18:27:54.142Z,57.37
2022-11-25T18:30:24.104Z,57.54
2022-11-25T18:32:52.026Z,57.55
2022-11-25T18:35:22.473Z,57.40
2022-11-25T18:37:51.070Z,57.61
2022-11-25T18:40:19.443Z,57.29
2022-11-25T18:42:49.607Z,57.29
2022-11-25T18:45:19.416Z,57.58
2022-11-25T18:47:47.874Z,57.40
2022-11-25T18:50:18.015Z,57.22
2022-11-25T18:52:47.367Z,57.62
2022-11-25T18:55:16.814Z,57.27
2022-11-25T18:57:45.797Z,57.56
2022-11-25T19:00:31.727Z,57.31
2022-11-25T19:03:01.224Z,57.43
2022-11-25T19:05:31.570Z,57.28
2022-11-25T19:08:01.123Z,57.43
2022-11-25T19:10:31.366Z,57.27
2022-11-25T19:13:02.405Z,57.21
2022-11-25T19:15:31.404Z,57.29
2022-11-25T19:18:01.083Z,57.51
2022-11-25T19:20:30.384Z,57.26
2022-11-25T19:23:01.324Z,57.41
2022-11-25T19:25:29.738Z,57.37
2022-11-25T19:27:58.942Z,57.42
2022-11-25T19:30:27.964Z,57.32
2022-11-25T19:32:56.676Z,57.42
2022-11-25T19:35:26.787Z,57.37
2022-11-25T19:37:54.691Z,57.58
2022-11-25T19:40:25.251Z,57.50
2022-11-25T19:42:53.199Z,57.60
2022-11-25T19:45:21.361Z,57.42
2022-11-25T19:47:50.849Z,57.76
2022-11-25T19:50:21.681Z,57.64
2022-11-25T19:52:49.941Z,57.54
2022-11-25T19:55:18.956Z,57.70
2022-11-25T19:57:48.465Z,57.71
2022-11-25T20:00:17.771Z,57.54
2022-11-25T20:02:45.938Z,57.66
2022-11-25T20:05:17.087Z,57.51
2022-11-25T20:07:45.178Z,57.35
2022-11-25T20:10:17.482Z,57.74
2022-11-25T20:12:45.464Z,57.72
2022-11-25T20:15:14.728Z,57.63
2022-11-25T20:17:44.497Z,57.61
2022-11-25T20:20:15.603Z,57.69
2022-11-25T20:22:45.036Z,57.58
2022-11-25T20:25:12.991Z,57.62
2022-11-25T20:27:41.560Z,57.75
2022-11-25T20:30:17.487Z,57.65
2022-11-25T20:32:45.427Z,57.42
2022-11-25T20:35:13.443Z,57.67
2022-11-25T20:37:51.107Z,57.67
2022-11-25T20:40:20.957Z,57.44
2022-11-25T20:42:49.772Z,57.52
2022-11-25T20:45:19.811Z,57.43
2022-11-25T20:47:49.082Z,57.65
2022-11-25T20:50:17.145Z,57.56
2022-11-25T20:52:45.050Z,57.76
2022-11-25T20:55:18.523Z,57.85
2022-11-25T20:57:46.449Z,57.51
2022-11-25T21:00:20.220Z,57.63
2022-11-25T21:02:48.821Z,57.86
2022-11-25T21:05:17.047Z,57.70
2022-11-25T21:07:44.976Z,57.63
2022-11-25T21:10:22.015Z,57.89
2022-11-25T21:12:49.945Z,57.77
2022-11-25T21:15:21.223Z,57.75
2022-11-25T21:17:49.579Z,57.85
2022-11-25T21:20:18.056Z,57.95
2022-11-25T21:22:47.245Z,57.76
2022-11-25T21:25:16.284Z,57.87
2022-11-25T21:27:44.291Z,57.71
2022-11-25T21:30:20.538Z,57.96
2022-11-25T21:32:48.571Z,58.11
2022-11-25T21:35:16.670Z,57.91
2022-11-25T21:37:44.788Z,57.76
2022-11-25T21:40:22.712Z,57.79
2022-11-25T21:42:50.599Z,57.99
2022-11-25T21:45:19.878Z,58.02
2022-11-25T21:47:47.803Z,58.04
2022-11-25T21:50:17.041Z,57.85
2022-11-25T21:52:44.948Z,57.78
2022-11-25T21:55:13.291Z,57.88
2022-11-25T21:57:41.326Z,57.71
2022-11-25T22:00:21.251Z,57.73
2022-11-25T22:02:49.793Z,57.87
2022-11-25T22:05:18.847Z,57.83
2022-11-25T22:07:46.860Z,57.63
2022-11-25T22:10:16.433Z,57.64
2022-11-25T22:12:45.165Z,57.64
2022-11-25T22:15:15.505Z,57.76
2022-11-25T22:17:45.037Z,57.76
2022-11-25T22:20:25.774Z,57.81
2022-11-25T22:22:53.748Z,57.74
2022-11-25T22:25:21.682Z,57.54
2022-11-25T22:27:51.080Z,57.49
2022-11-25T22:30:24.589Z,57.69
2022-11-25T22:32:59.569Z,57.66
2022-11-25T22:35:27.461Z,57.51
2022-11-25T22:37:55.719Z,57.60
2022-11-25T22:40:23.721Z,57.65
2022-11-25T22:42:51.740Z,57.45
2022-11-25T22:45:24.696Z,57.51
2022-11-25T22:47:52.660Z,57.72
2022-11-25T22:50:24.352Z,57.53
2022-11-25T22:52:52.317Z,57.73
2022-11-25T22:55:21.597Z,57.56
2022-11-25T22:57:49.727Z,57.65
2022-11-25T23:00:19.287Z,57.58
2022-11-25T23:02:47.452Z,57.83
2022-11-25T23:05:16.784Z,57.75
2022-11-25T23:07:46.206Z,57.76
2022-11-25T23:10:18.029Z,57.53
2022-11-25T23:12:45.964Z,57.71
2022-11-25T23:15:15.209Z,57.80
2022-11-25T23:17:45.705Z,57.79
2022-11-25T23:20:16.819Z,57.82
2022-11-25T23:22:46.411Z,57.82
2022-11-25T23:25:15.887Z,57.63
2022-11-25T23:27:44.048Z,57.70
2022-11-25T23:30:15.680Z,57.93
2022-11-25T23:32:43.662Z,57.79
2022-11-25T23:35:15.422Z,57.98
2022-11-25T23:37:45.023Z,57.91
2022-11-25T23:40:20.876Z,57.81
2022-11-25T23:42:48.798Z,57.96
2022-11-25T23:45:17.522Z,57.81
2022-11-25T23:47:46.103Z,57.77
2022-11-25T23:50:24.767Z,57.87
2022-11-25T23:52:55.720Z,58.04
2022-11-25T23:55:26.207Z,57.90
2022-11-25T23:57:54.110Z,58.00
